LKPRLKMT

Guest
Details From LKPR - Ruzyne
To LKMT - Mosnov
Flight Number -
Tags Generated
Created
Modified
Stats Distance 150 nm / 278 km
Max Altitude 0 ft / 0 m
Waypoints 2
Social Downloads 5
Likes 0
Share VATSIM

Download

Looking for another format? Having issues loading an existing format? Contact us
Advertisement - Login to hide

Notes

Generated

Route

LKPR LKMT

ID Type Via Altitude Latitude Longitude Leg Dist Tot Dist Heading (true) Name
O LKPR APT - 0 ft / 0 m 50.08771˚ 14.26668˚ - 0 nm - -
O LKMT APT - 0 ft / 0 m 49.68532˚ 18.09325˚ 150 nm 150 nm 98° / 101° -

Altitude Profile

Advertisement - Login to hide

LKPR

Details ICAO LKPR (PRG)
Name Praha - Ruzyne
Region Czech Republic
Timezone Europe/Prague (UTC+2.0)
Stats Elevation 1,246 ft / 380 m (AMSL)
Location 50.101144° 14.262963°
Runways 3
Magnetic Variation 3.917° E

METAR

LKPR 231230Z 08010KT 9999 SCT042 22/14 Q1018 NOSIG

Decode

TAF

TAF LKPR 231100Z 2312/2418 08010KT 9999 SCT040 PROB40 TEMPO 2312/2319 11014G30KT 6000 TSRA SCT025CB BKN030 TEMPO 2319/2321 -SHRA TEMPO 2406/2418 9000 SHRA SCT030TCU PROB40 TEMPO 2409/2417 15014G28KT 4000 TSRA SCT020CB BKN025

Decode

Departure Runways

ID Width Length Bearing (true) Bearing (mag) Surface Threshold Offset Overrun Length
04 197 ft / 60 m 6,932 ft / 2,113 m 36.80° 32.88° Asphalt 0 ft / 0 m 0 ft / 0 m
06 148 ft / 45 m 12,160 ft / 3,706 m 64.92° 61.00° Concrete 0 ft / 0 m 0 ft / 0 m
12 148 ft / 45 m 10,622 ft / 3,238 m 126.99° 123.07° Concrete 0 ft / 0 m 0 ft / 0 m
22 197 ft / 60 m 6,932 ft / 2,113 m 216.81° 212.89° Asphalt 0 ft / 0 m 591 ft / 180 m
24 148 ft / 45 m 12,160 ft / 3,706 m 244.96° 241.04° Concrete 0 ft / 0 m 0 ft / 0 m
30 148 ft / 45 m 10,622 ft / 3,238 m 307.01° 303.09° Concrete 0 ft / 0 m 0 ft / 0 m

LKMT

Details ICAO LKMT (OSR)
Name Ostrava Mosnov
Region Czech Republic
Timezone Europe/Prague (UTC+2.0)
Stats Elevation 843 ft / 257 m (AMSL)
Location 49.696217° 18.110855°
Runways 1
Magnetic Variation 4.817° E

METAR

LKMT 231230Z VRB05KT 9999 SCT042 25/15 Q1019 NOSIG

Decode

TAF

TAF LKMT 231100Z 2312/2418 03008KT 9999 SCT040 PROB40 TEMPO 2312/2318 08012G24KT 6000 TSRA SCT025CB BKN030 TEMPO 2405/2418 04012G26KT PROB30 TEMPO 2412/2418 8000 SHRA SCT025TCU

Decode

Destination Runways

ID Width Length Bearing (true) Bearing (mag) Surface Threshold Offset Overrun Length
04 207 ft / 63 m 11,532 ft / 3,515 m 46.29° 41.47° Concrete 0 ft / 0 m 52 ft / 16 m
22 207 ft / 63 m 11,532 ft / 3,515 m 226.31° 221.49° Concrete 0 ft / 0 m 49 ft / 15 m

Approach Navaids

Runway Type Ident Frequency Range Bearing (true) Bearing (mag) Slope Elevation
22 Localiser OSV 110.95 MHz 18 nm / 33 km 226.26° 221.44° - 807 ft / 246 m (AMSL)
22 Glidescope OSV 110.95 MHz 10 nm / 19 km 226.30° 221.48° 3.00° 807 ft / 246 m (AMSL)
22 DME OSV 110.95 MHz 18 nm / 33 km - - - 824 ft / 251 m (AMSL)

Popular Alternatives